CZBF

Details ICAO CZBF (ZBF)
Name BATHURST
Region Canada
Timezone America/Moncton (UTC-4.0)
Plans Departing 11
Arriving 6
Stats Elevation 193 ft / 59 m (AMSL)
Location 47.629641° -65.738968°
Runways 1
Magnetic Variation 17.913° W
Sunrise 2017-12-10 12:01:52 UTC / 2017-12-10 08:01:52 Local
Sunset 2017-12-10 20:32:44 UTC / 2017-12-10 16:32:44 Local
Advertisement - Login to hide

Runways

ID Width Length Bearing (true) Bearing (mag) Surface Threshold Offset Overrun Length
10 100 ft / 30 m 4,489 ft / 1,368 m 81.93° 99.84° Asphalt 0 ft / 0 m 0 ft / 0 m
28 100 ft / 30 m 4,489 ft / 1,368 m 261.95° 279.86° Asphalt 0 ft / 0 m 0 ft / 0 m

Map

Weather


0- 5 10 15 20 25 30 35+ Temperature / ° C

Clouds and Precipitation
Forecast for 2017-12-11 00:00 UTC. Updated an hour ago

Ground ~20,000 ft ~40,000 ft Winds

METAR

CZBF 110000Z 20004KT 15SM SKC M09/M10 A2963 RMK SLP040

TAF

TAF CZBF 101938Z 1020/1104 28012KT P6SM SCT010 TEMPO 1020/1024 BKN010 FM110000 26008KT P6SM BKN040 TEMPO 1100/1104 5SM -SN BKN025 RMK NXT FCST BY 110200Z

Frequencies

Unicom 122.80 MHz CTAF/UNICOM
Warning: Do not use this data for real-world aviation or navigation. No guarantee of current accuracy is given.